Time;durP1;ratioP1;P1;durP2;ratioP2;P2;SDS_P1;SDS_P2;PMS_P1;PMS_P2;Temp;Humidity;BMP_temperature;BMP_pressure;BME280_temperature;BME280_humidity;BME280_pressure;Samples;Min_cycle;Max_cycle;Signal;HPM_P1;HPM_P2
2023/06/12 00:02:13;;;;;;;0.35;0.22;;;22.50;94.90;;;;;;5012637;28;20486;-65
2023/06/12 00:04:39;;;;;;;0.65;0.65;;;22.50;95.10;;;;;;5007901;28;20426;-65
2023/06/12 00:07:05;;;;;;;0.13;0.05;;;22.40;95.20;;;;;;4995802;28;20076;-65
2023/06/12 00:09:32;;;;;;;1.52;0.40;;;22.40;95.20;;;;;;5013463;28;20064;-65
2023/06/12 00:11:58;;;;;;;0.05;0.05;;;22.30;95.90;;;;;;5009432;28;20053;-65
2023/06/12 00:14:24;;;;;;;0.00;0.00;;;22.20;95.50;;;;;;5008229;28;20046;-65
2023/06/12 00:16:49;;;;;;;0.00;0.00;;;22.30;95.40;;;;;;5013287;28;20037;-65
2023/06/12 00:19:15;;;;;;;0.30;0.10;;;22.20;95.40;;;;;;5009904;28;20046;-65
2023/06/12 00:21:41;;;;;;;0.28;0.28;;;22.20;95.10;;;;;;5010276;28;20096;-65
2023/06/12 00:24:08;;;;;;;0.38;0.38;;;22.20;95.70;;;;;;5013418;28;20121;-65
2023/06/12 00:26:38;;;;;;;0.32;0.32;;;22.00;95.40;;;;;;5003137;28;20096;-65
2023/06/12 00:29:04;;;;;;;0.00;0.00;;;22.00;95.30;;;;;;4999589;28;20558;-65
2023/06/12 00:31:30;;;;;;;0.15;0.15;;;22.00;95.70;;;;;;4995711;28;20149;-65
2023/06/12 00:33:55;;;;;;;0.08;0.08;;;21.90;95.70;;;;;;5013186;28;20033;-65
2023/06/12 00:36:22;;;;;;;0.10;0.10;;;21.90;95.70;;;;;;5012336;28;20130;-65
2023/06/12 00:38:48;;;;;;;1.35;0.38;;;21.80;96.10;;;;;;5012874;28;20437;-65
2023/06/12 00:41:13;;;;;;;0.32;0.32;;;21.80;95.70;;;;;;5003301;28;20057;-66
2023/06/12 00:43:39;;;;;;;0.00;0.00;;;21.70;95.80;;;;;;5004523;28;20389;-65
2023/06/12 00:46:06;;;;;;;0.10;0.10;;;21.70;95.90;;;;;;5012867;28;20129;-65
2023/06/12 00:48:31;;;;;;;0.00;0.00;;;21.70;95.70;;;;;;5013098;28;20053;-65
2023/06/12 00:50:58;;;;;;;0.45;0.38;;;21.80;96.30;;;;;;4996547;28;20368;-65
2023/06/12 00:53:24;;;;;;;0.08;0.08;;;21.70;96.10;;;;;;5012478;28;20042;-65
2023/06/12 00:55:50;;;;;;;1.77;0.40;;;21.60;96.00;;;;;;5007959;28;20034;-65
2023/06/12 00:58:15;;;;;;;0.15;0.10;;;21.60;96.00;;;;;;5003188;28;20567;-65
2023/06/12 01:00:41;;;;;;;0.40;0.40;;;21.50;96.60;;;;;;5009635;28;20050;-66
2023/06/12 01:03:10;;;;;;;0.00;0.00;;;21.40;96.60;;;;;;5001242;28;20042;-65
2023/06/12 01:05:42;;;;;;;0.00;0.00;;;21.40;96.90;;;;;;5012063;28;20045;-65
2023/06/12 01:08:35;;;;;;;0.00;0.00;;;21.30;96.40;;;;;;5001513;28;20441;-65
2023/06/12 01:11:12;;;;;;;1.77;0.45;;;21.30;96.40;;;;;;5009695;28;20135;-65
2023/06/12 01:13:38;;;;;;;0.45;0.30;;;21.40;96.50;;;;;;5007168;28;20073;-65
2023/06/12 01:16:04;;;;;;;0.35;0.10;;;21.30;96.30;;;;;;5005770;28;20038;-65
2023/06/12 01:18:32;;;;;;;0.13;0.13;;;21.20;96.40;;;;;;5010298;28;20061;-65
2023/06/12 01:21:01;;;;;;;0.30;0.30;;;21.20;96.50;;;;;;5012346;28;20045;-65
2023/06/12 01:23:29;;;;;;;6.63;1.75;;;21.10;96.60;;;;;;5004798;28;21411;-66
2023/06/12 01:26:27;;;;;;;0.10;0.10;;;21.10;96.80;;;;;;4999671;28;20045;-66
2023/06/12 01:29:07;;;;;;;0.10;0.10;;;21.00;96.90;;;;;;5000495;28;20054;-65
2023/06/12 01:32:08;;;;;;;0.00;0.00;;;21.10;96.80;;;;;;5010673;28;20050;-66
2023/06/12 01:34:50;;;;;;;0.32;0.30;;;21.10;96.70;;;;;;5006614;28;20171;-66
2023/06/12 01:37:34;;;;;;;0.00;0.00;;;21.00;96.80;;;;;;5012219;28;20060;-65
2023/06/12 01:40:05;;;;;;;0.00;0.00;;;20.80;97.00;;;;;;4997000;28;20133;-66
2023/06/12 01:42:31;;;;;;;0.55;0.30;;;20.90;96.80;;;;;;5009066;28;20494;-65
2023/06/12 01:44:57;;;;;;;0.10;0.10;;;20.80;97.10;;;;;;5008213;28;20066;-65
2023/06/12 01:47:23;;;;;;;0.00;0.00;;;20.80;97.20;;;;;;5010651;28;20045;-65
2023/06/12 01:49:49;;;;;;;0.40;0.10;;;20.80;97.20;;;;;;5012062;28;20041;-65
2023/06/12 01:52:14;;;;;;;0.10;0.10;;;20.70;97.40;;;;;;4998561;28;20125;-65
2023/06/12 01:54:40;;;;;;;0.30;0.30;;;20.60;97.40;;;;;;5001187;28;20046;-65
2023/06/12 01:57:06;;;;;;;19.60;0.88;;;20.60;97.60;;;;;;5007465;28;20371;-65
2023/06/12 01:59:34;;;;;;;0.10;0.10;;;20.50;97.50;;;;;;5003249;28;20048;-65
2023/06/12 02:02:03;;;;;;;0.73;0.73;;;20.50;97.80;;;;;;5011375;28;20057;-65
2023/06/12 02:04:29;;;;;;;0.00;0.00;;;20.50;97.70;;;;;;5011792;28;20037;-65
2023/06/12 02:06:55;;;;;;;0.10;0.10;;;20.50;97.90;;;;;;5007940;28;20140;-66
2023/06/12 02:09:20;;;;;;;0.28;0.20;;;20.40;98.00;;;;;;5009937;28;20478;-66
2023/06/12 02:11:46;;;;;;;0.05;0.05;;;20.30;98.00;;;;;;5010359;28;20065;-65
2023/06/12 02:14:11;;;;;;;1.17;1.08;;;20.30;98.20;;;;;;5007824;28;20559;-65
2023/06/12 02:16:37;;;;;;;0.22;0.22;;;20.30;98.10;;;;;;5000926;28;20080;-65
2023/06/12 02:19:02;;;;;;;0.55;0.55;;;20.20;98.20;;;;;;5008847;28;20049;-65
2023/06/12 02:21:28;;;;;;;0.00;0.00;;;20.20;98.40;;;;;;5004264;28;20041;-65
2023/06/12 02:23:54;;;;;;;1.75;0.52;;;20.20;98.60;;;;;;5001155;28;20080;-66
2023/06/12 02:26:20;;;;;;;0.30;0.20;;;20.10;98.60;;;;;;5011582;28;20049;-66
2023/06/12 02:29:05;;;;;;;0.00;0.00;;;20.10;98.90;;;;;;5007700;28;20129;-65
2023/06/12 02:31:30;;;;;;;0.00;0.00;;;20.10;99.20;;;;;;4998470;28;20050;-65
2023/06/12 02:33:56;;;;;;;0.05;0.05;;;19.90;99.60;;;;;;5011654;28;20501;-65
2023/06/12 02:36:21;;;;;;;1.80;0.93;;;19.90;99.40;;;;;;5010681;28;20145;-65
2023/06/12 02:38:48;;;;;;;0.00;0.00;;;19.80;99.50;;;;;;5002420;28;20038;-65
2023/06/12 02:41:13;;;;;;;0.00;0.00;;;19.90;99.70;;;;;;5000050;28;20501;-66
2023/06/12 02:43:39;;;;;;;0.20;0.20;;;19.80;99.70;;;;;;5009246;28;20088;-66
2023/06/12 02:46:04;;;;;;;0.00;0.00;;;19.90;99.70;;;;;;5011456;28;20053;-66
2023/06/12 02:48:30;;;;;;;0.65;0.65;;;19.80;99.90;;;;;;5005695;28;20041;-66
2023/06/12 02:50:55;;;;;;;0.08;0.08;;;19.80;99.90;;;;;;5009109;28;20485;-65
2023/06/12 02:53:21;;;;;;;0.45;0.30;;;19.80;99.90;;;;;;5011443;28;20038;-66
2023/06/12 02:55:46;;;;;;;0.10;0.10;;;19.80;99.90;;;;;;5008227;28;20044;-66
2023/06/12 02:58:12;;;;;;;0.15;0.15;;;19.70;99.90;;;;;;5000233;28;20089;-65
2023/06/12 03:00:38;;;;;;;0.50;0.43;;;19.70;99.90;;;;;;5005465;28;20046;-66
2023/06/12 03:03:04;;;;;;;0.45;0.13;;;19.60;99.90;;;;;;5008144;28;20403;-65
2023/06/12 03:05:30;;;;;;;0.00;0.00;;;19.60;99.90;;;;;;5008781;28;20054;-66
2023/06/12 03:07:57;;;;;;;0.00;0.00;;;19.60;99.90;;;;;;4999635;28;20049;-66
2023/06/12 03:10:23;;;;;;;0.00;0.00;;;19.60;99.90;;;;;;5011716;28;20045;-66
2023/06/12 03:12:49;;;;;;;0.57;0.57;;;19.50;99.90;;;;;;5006798;28;20050;-66
2023/06/12 03:15:15;;;;;;;0.03;0.03;;;19.50;99.90;;;;;;5013582;28;20083;-66
2023/06/12 03:17:40;;;;;;;0.25;0.25;;;19.40;99.90;;;;;;5013782;28;20042;-65
2023/06/12 03:20:07;;;;;;;0.20;0.20;;;19.40;99.90;;;;;;5010222;28;20048;-66
2023/06/12 03:22:33;;;;;;;0.10;0.10;;;19.40;99.90;;;;;;5006011;28;20046;-66
2023/06/12 03:24:58;;;;;;;0.05;0.03;;;19.30;99.90;;;;;;5013775;28;20452;-65
2023/06/12 03:27:24;;;;;;;0.17;0.17;;;19.30;99.90;;;;;;5014421;28;20123;-65
2023/06/12 03:29:50;;;;;;;0.00;0.00;;;19.30;99.90;;;;;;5009488;28;20468;-66
2023/06/12 03:32:16;;;;;;;0.00;0.00;;;19.30;99.90;;;;;;4998819;28;20482;-66
2023/06/12 03:34:42;;;;;;;0.40;0.40;;;19.30;99.90;;;;;;5019191;28;20050;-66
2023/06/12 03:37:08;;;;;;;0.00;0.00;;;19.20;99.90;;;;;;5001889;28;20042;-65
2023/06/12 03:39:33;;;;;;;0.00;0.00;;;19.20;99.90;;;;;;5007338;28;20046;-66
2023/06/12 03:41:59;;;;;;;0.35;0.17;;;19.20;99.90;;;;;;5007459;28;20498;-65
2023/06/12 03:44:25;;;;;;;0.45;0.45;;;19.20;99.90;;;;;;5008066;28;20120;-65
2023/06/12 03:46:50;;;;;;;0.28;0.28;;;19.10;99.90;;;;;;4999467;28;20401;-66
2023/06/12 03:49:16;;;;;;;0.08;0.08;;;19.10;99.90;;;;;;5008688;28;20038;-66
2023/06/12 03:51:42;;;;;;;0.75;0.20;;;19.10;99.90;;;;;;5013844;28;20576;-65
2023/06/12 03:54:09;;;;;;;0.10;0.10;;;19.00;99.90;;;;;;5009549;28;20046;-66
2023/06/12 03:56:35;;;;;;;0.00;0.00;;;19.10;99.90;;;;;;5010322;28;20048;-65
2023/06/12 03:59:01;;;;;;;0.00;0.00;;;19.10;99.90;;;;;;5010311;28;20042;-65
2023/06/12 04:01:26;;;;;;;0.30;0.13;;;19.00;99.90;;;;;;5007603;28;20401;-66
2023/06/12 04:03:53;;;;;;;0.00;0.00;;;19.00;99.90;;;;;;5013312;28;20033;-66
2023/06/12 04:06:22;;;;;;;0.00;0.00;;;19.00;99.90;;;;;;5007955;28;20046;-66
2023/06/12 04:08:48;;;;;;;0.00;0.00;;;19.10;99.90;;;;;;5012424;28;20038;-66
2023/06/12 04:11:14;;;;;;;0.00;0.00;;;19.10;99.90;;;;;;5005896;28;20045;-66
2023/06/12 04:13:40;;;;;;;0.22;0.22;;;19.10;99.90;;;;;;5012265;28;20046;-65
2023/06/12 04:16:07;;;;;;;0.28;0.28;;;19.00;99.90;;;;;;5013117;28;20056;-65
2023/06/12 04:18:33;;;;;;;1.08;0.85;;;19.10;99.90;;;;;;5013306;28;20050;-66
2023/06/12 04:21:02;;;;;;;0.20;0.20;;;19.10;99.90;;;;;;5000106;28;20060;-66
2023/06/12 04:23:29;;;;;;;0.20;0.20;;;19.10;99.90;;;;;;5005293;28;20073;-66
2023/06/12 04:26:05;;;;;;;0.22;0.22;;;19.20;99.90;;;;;;5013233;28;20049;-66
2023/06/12 04:28:35;;;;;;;0.00;0.00;;;19.10;99.90;;;;;;5012083;28;20072;-66
2023/06/12 04:31:02;;;;;;;0.57;0.45;;;19.10;99.90;;;;;;5002368;28;20050;-66
2023/06/12 04:33:32;;;;;;;0.17;0.17;;;19.10;99.90;;;;;;5011915;28;20049;-66
2023/06/12 04:36:01;;;;;;;0.00;0.00;;;19.10;99.90;;;;;;5001175;28;20065;-66
2023/06/12 04:38:30;;;;;;;0.00;0.00;;;19.00;99.90;;;;;;5006532;28;20057;-66
2023/06/12 04:40:59;;;;;;;0.08;0.08;;;19.00;99.90;;;;;;5001770;28;20038;-66
2023/06/12 04:43:25;;;;;;;0.25;0.25;;;19.10;99.90;;;;;;5012533;28;20077;-66
2023/06/12 04:45:52;;;;;;;0.40;0.35;;;19.20;99.90;;;;;;5012993;28;20481;-66
2023/06/12 04:48:19;;;;;;;3.40;1.95;;;19.10;99.90;;;;;;5003407;28;20039;-66
2023/06/12 04:50:48;;;;;;;0.13;0.13;;;19.10;99.90;;;;;;5019736;28;20465;-66
2023/06/12 04:53:19;;;;;;;0.00;0.00;;;19.10;99.90;;;;;;5002416;28;20038;-66
2023/06/12 04:55:50;;;;;;;0.10;0.10;;;19.10;99.90;;;;;;5010014;28;20488;-66
2023/06/12 04:58:17;;;;;;;0.73;0.73;;;19.10;99.90;;;;;;5007947;28;20045;-66
2023/06/12 05:00:47;;;;;;;0.77;0.15;;;19.20;99.90;;;;;;5005750;28;20397;-66
2023/06/12 05:03:17;;;;;;;0.32;0.32;;;19.10;99.90;;;;;;5004882;28;20496;-65
2023/06/12 05:05:44;;;;;;;0.00;0.00;;;19.10;99.90;;;;;;5003718;28;20049;-66
2023/06/12 05:08:11;;;;;;;0.25;0.25;;;19.20;99.90;;;;;;5003308;28;20044;-66
2023/06/12 05:10:36;;;;;;;0.10;0.10;;;19.20;99.90;;;;;;5007638;28;20049;-66
2023/06/12 05:13:02;;;;;;;0.05;0.05;;;19.30;99.90;;;;;;5004738;28;20058;-66
2023/06/12 05:15:28;;;;;;;0.00;0.00;;;19.40;99.90;;;;;;5012875;28;20371;-66
2023/06/12 05:17:54;;;;;;;0.00;0.00;;;19.40;99.90;;;;;;5011237;28;20045;-66
2023/06/12 05:20:21;;;;;;;0.25;0.25;;;19.40;99.90;;;;;;5008539;28;20085;-66
2023/06/12 05:22:46;;;;;;;0.00;0.00;;;19.50;99.90;;;;;;5010962;28;20034;-66
2023/06/12 05:25:12;;;;;;;0.00;0.00;;;19.50;99.90;;;;;;5008781;28;20311;-66
2023/06/12 05:27:38;;;;;;;1.05;0.52;;;19.50;99.90;;;;;;5009445;28;20041;-66
2023/06/12 05:30:06;;;;;;;0.00;0.00;;;19.60;99.90;;;;;;5010690;28;20058;-66
2023/06/12 05:32:32;;;;;;;0.00;0.00;;;19.60;99.90;;;;;;5011471;28;20081;-66
2023/06/12 05:34:57;;;;;;;0.55;0.30;;;19.60;99.90;;;;;;5007613;28;20069;-66
2023/06/12 05:37:23;;;;;;;0.38;0.38;;;19.60;99.90;;;;;;5011127;28;20042;-66
2023/06/12 05:39:49;;;;;;;0.20;0.20;;;19.60;99.90;;;;;;4998598;28;20042;-66
2023/06/12 05:42:15;;;;;;;1.45;0.70;;;19.70;99.90;;;;;;5007685;28;20057;-66
2023/06/12 05:44:41;;;;;;;0.00;0.00;;;19.70;99.90;;;;;;5011305;28;20093;-66
2023/06/12 05:47:08;;;;;;;0.00;0.00;;;19.80;99.90;;;;;;5011830;28;20081;-66
2023/06/12 05:49:34;;;;;;;0.10;0.10;;;19.80;99.90;;;;;;4999580;28;20070;-66
2023/06/12 05:52:01;;;;;;;2.90;1.23;;;19.90;99.90;;;;;;5003149;28;20168;-66
2023/06/12 05:54:27;;;;;;;1.55;0.77;;;19.90;99.90;;;;;;5009434;28;20560;-66
2023/06/12 05:56:52;;;;;;;0.47;0.30;;;19.90;99.90;;;;;;5003431;28;20125;-66
2023/06/12 05:59:18;;;;;;;0.43;0.43;;;20.00;99.90;;;;;;5011175;28;20042;-66
2023/06/12 06:01:44;;;;;;;0.10;0.00;;;20.00;99.90;;;;;;5008092;28;20038;-66
2023/06/12 06:04:12;;;;;;;0.52;0.45;;;20.10;99.90;;;;;;5008575;28;20073;-66
2023/06/12 06:06:38;;;;;;;0.20;0.17;;;20.10;99.90;;;;;;4996290;28;20106;-66
2023/06/12 06:09:05;;;;;;;0.10;0.10;;;20.10;99.90;;;;;;5010903;28;20089;-66
2023/06/12 06:11:31;;;;;;;0.10;0.10;;;20.10;99.90;;;;;;5011665;28;20072;-66
2023/06/12 06:13:58;;;;;;;0.00;0.00;;;20.20;99.90;;;;;;5006351;28;20058;-66
2023/06/12 06:16:24;;;;;;;0.10;0.10;;;20.20;99.90;;;;;;5000557;28;20103;-66
2023/06/12 06:18:50;;;;;;;4.72;1.55;;;20.20;99.90;;;;;;5004460;28;20049;-66
2023/06/12 06:21:16;;;;;;;0.35;0.32;;;20.20;99.90;;;;;;5000604;28;20082;-66
2023/06/12 06:23:41;;;;;;;0.00;0.00;;;20.30;99.90;;;;;;5011750;28;20061;-66
2023/06/12 06:26:09;;;;;;;0.40;0.40;;;20.30;99.90;;;;;;5009381;28;20440;-66
2023/06/12 06:28:35;;;;;;;0.30;0.30;;;20.40;99.90;;;;;;5001478;28;20694;-66
2023/06/12 06:31:03;;;;;;;0.40;0.40;;;20.50;99.90;;;;;;5010850;28;20049;-66
2023/06/12 06:33:29;;;;;;;1.20;1.10;;;20.50;99.90;;;;;;5012112;28;20054;-66
2023/06/12 06:35:55;;;;;;;0.00;0.00;;;20.60;99.90;;;;;;5009229;28;20030;-66
2023/06/12 06:38:22;;;;;;;0.00;0.00;;;20.70;99.90;;;;;;5014980;28;20045;-66
2023/06/12 06:40:51;;;;;;;0.00;0.00;;;20.80;99.90;;;;;;5015109;28;20436;-66
2023/06/12 06:43:17;;;;;;;0.15;0.15;;;20.80;99.90;;;;;;4999389;28;20478;-66
2023/06/12 06:45:43;;;;;;;0.20;0.20;;;20.90;99.90;;;;;;4998308;28;20099;-66
2023/06/12 06:48:09;;;;;;;0.38;0.38;;;20.90;99.90;;;;;;5003698;28;20093;-66
2023/06/12 06:50:35;;;;;;;1.05;0.70;;;21.00;99.90;;;;;;5014877;28;20053;-66
2023/06/12 06:53:02;;;;;;;0.08;0.08;;;21.10;99.90;;;;;;5013740;28;20425;-66
2023/06/12 06:55:28;;;;;;;0.15;0.10;;;21.20;99.90;;;;;;5008463;28;20962;-66
2023/06/12 06:57:54;;;;;;;0.10;0.10;;;21.20;99.90;;;;;;5014291;28;20038;-66
2023/06/12 07:00:21;;;;;;;0.20;0.20;;;21.20;99.90;;;;;;5010007;28;20338;-66
2023/06/12 07:02:47;;;;;;;0.05;0.05;;;21.30;99.90;;;;;;5012950;28;20038;-66
2023/06/12 07:05:14;;;;;;;0.98;0.98;;;21.40;99.90;;;;;;5014807;28;20045;-66
2023/06/12 07:07:40;;;;;;;0.20;0.17;;;21.50;99.90;;;;;;5014780;28;20109;-66
2023/06/12 07:10:07;;;;;;;1.08;0.28;;;21.60;99.90;;;;;;5002682;28;20601;-66
2023/06/12 07:12:34;;;;;;;1.95;0.52;;;21.60;99.90;;;;;;5008724;28;20081;-66
2023/06/12 07:14:59;;;;;;;0.25;0.25;;;21.70;99.90;;;;;;5008762;28;20053;-66
2023/06/12 07:17:25;;;;;;;0.20;0.20;;;21.80;99.90;;;;;;5013961;28;20054;-66
2023/06/12 07:19:51;;;;;;;0.10;0.10;;;21.90;99.90;;;;;;5007545;28;20039;-66
2023/06/12 07:22:16;;;;;;;0.20;0.20;;;21.90;99.90;;;;;;5004668;28;20046;-66
2023/06/12 07:24:42;;;;;;;0.70;0.60;;;22.00;99.90;;;;;;5017293;28;20050;-66
2023/06/12 07:27:08;;;;;;;7.72;0.55;;;22.10;99.90;;;;;;5011679;28;20405;-66
2023/06/12 07:29:34;;;;;;;0.65;0.28;;;22.20;99.90;;;;;;5009145;28;20054;-66
2023/06/12 07:32:00;;;;;;;0.00;0.00;;;22.20;99.90;;;;;;5012547;28;20053;-66
2023/06/12 07:34:25;;;;;;;0.22;0.22;;;22.30;99.90;;;;;;5014301;28;20046;-66
2023/06/12 07:36:52;;;;;;;0.00;0.00;;;22.30;99.90;;;;;;5011209;28;20049;-66
2023/06/12 07:39:18;;;;;;;1.35;1.08;;;22.50;99.90;;;;;;4997882;28;20096;-66
2023/06/12 07:41:44;;;;;;;0.05;0.05;;;22.50;99.90;;;;;;5013858;28;20496;-66
2023/06/12 07:44:13;;;;;;;1.00;0.52;;;22.60;99.90;;;;;;5013963;28;20072;-66
2023/06/12 07:46:41;;;;;;;0.65;0.30;;;22.70;99.90;;;;;;5002769;28;20046;-66
2023/06/12 07:49:06;;;;;;;0.00;0.00;;;22.70;99.90;;;;;;5009509;28;20046;-66
2023/06/12 07:51:32;;;;;;;1.17;0.15;;;22.70;99.90;;;;;;5009252;28;20048;-66
2023/06/12 07:53:58;;;;;;;0.00;0.00;;;22.80;99.90;;;;;;5005193;28;20061;-66
2023/06/12 07:56:24;;;;;;;0.10;0.10;;;22.90;99.90;;;;;;5013909;28;20187;-66
2023/06/12 07:58:51;;;;;;;0.28;0.28;;;23.00;99.90;;;;;;5013513;28;20083;-66
2023/06/12 08:01:17;;;;;;;0.30;0.30;;;23.00;99.90;;;;;;5004812;28;20042;-66
2023/06/12 08:03:43;;;;;;;1.35;0.75;;;23.10;99.90;;;;;;5007387;28;20457;-66
2023/06/12 08:06:11;;;;;;;0.35;0.35;;;23.20;99.90;;;;;;5013328;28;20046;-66
2023/06/12 08:08:44;;;;;;;0.10;0.10;;;23.30;99.90;;;;;;5014176;28;20081;-66
2023/06/12 08:11:10;;;;;;;0.08;0.08;;;23.40;99.90;;;;;;5002776;28;20494;-66
2023/06/12 08:13:35;;;;;;;0.00;0.00;;;23.40;99.90;;;;;;5010507;28;20034;-66
2023/06/12 08:16:02;;;;;;;0.13;0.13;;;23.50;99.90;;;;;;5006734;28;20088;-66
2023/06/12 08:18:28;;;;;;;0.03;0.03;;;23.60;99.90;;;;;;5011102;28;20037;-66
2023/06/12 08:20:53;;;;;;;0.00;0.00;;;23.60;99.90;;;;;;5007953;28;20087;-66
2023/06/12 08:23:20;;;;;;;0.00;0.00;;;23.70;99.90;;;;;;5027691;28;20133;-66
2023/06/12 08:25:45;;;;;;;0.00;0.00;;;23.80;99.90;;;;;;5028551;28;20045;-66
2023/06/12 08:28:11;;;;;;;0.20;0.17;;;23.80;99.90;;;;;;5006706;28;20398;-66
2023/06/12 08:30:37;;;;;;;0.40;0.40;;;23.90;99.90;;;;;;4998650;28;20045;-66
2023/06/12 08:33:05;;;;;;;0.00;0.00;;;23.90;99.90;;;;;;5008432;28;20053;-66
2023/06/12 08:35:31;;;;;;;0.13;0.13;;;24.00;99.90;;;;;;5011896;28;20141;-66
2023/06/12 08:37:57;;;;;;;0.00;0.00;;;24.00;99.90;;;;;;5012948;28;20124;-66
2023/06/12 08:40:22;;;;;;;0.00;0.00;;;24.10;99.90;;;;;;5004160;28;20474;-66
2023/06/12 08:42:51;;;;;;;1.27;0.10;;;24.20;99.90;;;;;;5012045;28;20053;-66
2023/06/12 08:45:19;;;;;;;0.00;0.00;;;24.20;99.70;;;;;;4998414;28;20136;-66
2023/06/12 08:47:49;;;;;;;0.00;0.00;;;24.20;99.40;;;;;;5003906;28;20046;-66
2023/06/12 08:50:19;;;;;;;0.10;0.10;;;24.30;98.80;;;;;;5009207;28;20390;-67
2023/06/12 08:52:47;;;;;;;0.60;0.38;;;24.30;99.30;;;;;;5008368;28;20050;-66
2023/06/12 08:55:16;;;;;;;0.40;0.40;;;24.40;99.20;;;;;;5007618;28;20042;-66
2023/06/12 08:57:45;;;;;;;0.00;0.00;;;24.50;99.20;;;;;;4997090;28;20403;-67
2023/06/12 09:00:13;;;;;;;0.25;0.10;;;24.50;99.10;;;;;;5012855;28;20121;-66
2023/06/12 09:02:47;;;;;;;0.00;0.00;;;24.70;98.30;;;;;;4998871;28;20049;-66
2023/06/12 09:05:19;;;;;;;0.15;0.15;;;24.70;98.10;;;;;;5012588;28;20383;-66
2023/06/12 09:07:46;;;;;;;0.00;0.00;;;24.70;97.20;;;;;;5001231;28;20501;-66
2023/06/12 09:10:12;;;;;;;0.13;0.13;;;24.80;97.80;;;;;;5005113;28;20065;-67
2023/06/12 09:12:42;;;;;;;0.10;0.10;;;24.90;98.20;;;;;;5012197;28;20400;-67
2023/06/12 09:15:08;;;;;;;0.30;0.10;;;25.00;98.10;;;;;;5005365;28;20703;-67
2023/06/12 09:17:37;;;;;;;0.17;0.17;;;25.00;97.80;;;;;;5000255;28;20129;-67
2023/06/12 09:20:05;;;;;;;0.00;0.00;;;25.00;98.20;;;;;;5005592;28;20136;-66
2023/06/12 09:22:30;;;;;;;5.00;1.02;;;25.00;97.50;;;;;;5002072;28;20497;-67
2023/06/12 09:24:57;;;;;;;0.20;0.10;;;25.10;97.70;;;;;;5007030;28;20045;-66
2023/06/12 09:27:23;;;;;;;0.00;0.00;;;25.20;98.20;;;;;;4996204;28;20339;-66
2023/06/12 09:29:48;;;;;;;0.32;0.32;;;25.30;97.20;;;;;;5010439;28;20453;-66
2023/06/12 09:32:15;;;;;;;0.00;0.00;;;25.40;96.70;;;;;;4999305;28;20061;-66
2023/06/12 09:34:48;;;;;;;18.00;0.45;;;25.50;96.90;;;;;;5011926;28;20041;-66
2023/06/12 09:37:15;;;;;;;0.00;0.00;;;25.70;96.50;;;;;;5004144;28;20589;-66
2023/06/12 09:39:41;;;;;;;0.03;0.00;;;25.70;96.80;;;;;;5008111;28;20034;-66
2023/06/12 09:42:07;;;;;;;0.30;0.30;;;25.70;96.80;;;;;;5011752;28;20128;-66
2023/06/12 09:44:33;;;;;;;0.00;0.00;;;25.80;96.50;;;;;;5011218;28;20108;-66
2023/06/12 09:47:08;;;;;;;0.00;0.00;;;26.20;97.20;;;;;;5005206;28;20042;-67
2023/06/12 09:49:34;;;;;;;0.10;0.10;;;26.60;95.90;;;;;;5004486;28;20080;-67
2023/06/12 09:52:02;;;;;;;0.00;0.00;;;26.80;95.50;;;;;;5010926;28;20116;-66
2023/06/12 09:54:30;;;;;;;5.22;1.98;;;27.00;96.00;;;;;;4999926;28;20046;-66
2023/06/12 09:56:58;;;;;;;0.45;0.45;;;27.30;95.60;;;;;;5011428;28;20092;-66
2023/06/12 09:59:26;;;;;;;0.00;0.00;;;27.60;95.70;;;;;;5011298;28;20140;-67
2023/06/12 10:01:55;;;;;;;0.20;0.20;;;27.70;94.00;;;;;;5005972;28;20069;-67
2023/06/12 10:05:01;;;;;;;0.40;0.40;;;27.90;94.80;;;;;;5004622;28;20477;-66
2023/06/12 10:07:36;;;;;;;0.00;0.00;;;28.10;95.40;;;;;;5005186;28;20412;-66
2023/06/12 10:10:07;;;;;;;0.10;0.10;;;28.20;94.60;;;;;;5012384;28;20120;-67
2023/06/12 10:12:33;;;;;;;0.00;0.00;;;28.10;95.00;;;;;;5008140;28;20409;-67
2023/06/12 10:15:00;;;;;;;2.45;0.20;;;28.20;94.30;;;;;;5009003;28;20520;-67
2023/06/12 10:17:27;;;;;;;0.00;0.00;;;28.20;94.50;;;;;;5010830;28;20048;-67
2023/06/12 10:19:54;;;;;;;0.08;0.08;;;28.20;94.40;;;;;;5013717;28;20046;-67
2023/06/12 10:22:20;;;;;;;0.03;0.03;;;28.30;94.20;;;;;;5005990;28;20503;-67
2023/06/12 10:24:46;;;;;;;0.10;0.10;;;28.50;94.40;;;;;;5013417;28;20084;-67
2023/06/12 10:27:12;;;;;;;0.08;0.08;;;28.70;92.50;;;;;;5014783;28;20081;-67
2023/06/12 10:29:39;;;;;;;2.65;0.15;;;28.70;91.50;;;;;;5001262;28;20845;-67
2023/06/12 10:32:14;;;;;;;0.00;0.00;;;28.70;91.60;;;;;;5011389;28;20049;-67
2023/06/12 10:34:45;;;;;;;0.13;0.13;;;28.80;93.30;;;;;;5007039;28;20045;-66
2023/06/12 10:37:30;;;;;;;0.00;0.00;;;29.00;93.30;;;;;;5014415;28;20050;-67
2023/06/12 10:40:12;;;;;;;0.10;0.10;;;29.00;91.00;;;;;;5008445;28;20045;-67
2023/06/12 10:42:47;;;;;;;0.95;0.45;;;29.20;91.10;;;;;;5013548;28;20042;-67
2023/06/12 10:45:25;;;;;;;0.10;0.10;;;29.10;91.00;;;;;;4999403;28;20057;-67
2023/06/12 10:48:06;;;;;;;0.00;0.00;;;29.20;91.60;;;;;;4999573;28;20042;-67
2023/06/12 10:50:35;;;;;;;0.05;0.05;;;29.30;91.00;;;;;;5012607;28;20413;-67
2023/06/12 10:53:06;;;;;;;0.00;0.00;;;29.30;92.40;;;;;;5015152;28;20494;-67
2023/06/12 10:55:36;;;;;;;0.35;0.13;;;29.40;92.10;;;;;;5029610;28;20046;-67
2023/06/12 10:58:07;;;;;;;0.15;0.08;;;29.50;91.60;;;;;;5001465;28;20042;-67
2023/06/12 11:00:37;;;;;;;0.00;0.00;;;29.40;91.00;;;;;;5009843;28;20062;-67
2023/06/12 11:03:10;;;;;;;0.00;0.00;;;29.70;91.00;;;;;;5005385;28;20045;-67
2023/06/12 11:05:35;;;;;;;;;;;29.60;89.70;;;;;;5008018;28;20479;-67
2023/06/12 11:08:03;;;;;;;0.00;0.00;;;29.60;87.80;;;;;;4998625;28;19922;-67
2023/06/12 11:10:30;;;;;;;6.28;1.70;;;29.70;90.30;;;;;;5029657;28;20061;-67
2023/06/12 11:12:56;;;;;;;0.00;0.00;;;29.90;89.50;;;;;;5014909;28;20075;-67
2023/06/12 11:15:22;;;;;;;0.10;0.10;;;30.00;89.70;;;;;;5008644;28;20456;-67
2023/06/12 11:17:49;;;;;;;0.00;0.00;;;30.00;89.80;;;;;;5013097;28;20050;-67
2023/06/12 11:20:18;;;;;;;0.15;0.15;;;30.00;90.00;;;;;;5014765;28;20046;-67
2023/06/12 11:22:45;;;;;;;0.00;0.00;;;30.10;84.10;;;;;;5001835;28;20493;-67
2023/06/12 11:25:11;;;;;;;0.00;0.00;;;30.20;84.00;;;;;;5008950;28;20034;-67
2023/06/12 11:27:37;;;;;;;0.00;0.00;;;30.40;83.50;;;;;;5004402;28;20087;-67
2023/06/12 11:30:15;;;;;;;0.17;0.17;;;30.60;86.30;;;;;;5013142;28;20502;-67
2023/06/12 11:32:42;;;;;;;1.17;0.70;;;30.60;86.20;;;;;;5000327;28;20038;-67
2023/06/12 11:35:09;;;;;;;0.70;0.28;;;30.70;86.20;;;;;;5007267;28;20045;-67
2023/06/12 11:37:39;;;;;;;5.03;0.25;;;30.70;83.00;;;;;;5013235;28;21259;-67
2023/06/12 11:40:12;;;;;;;7.13;1.35;;;30.60;82.20;;;;;;5002750;28;20516;-67
2023/06/12 11:42:40;;;;;;;0.22;0.22;;;30.30;83.60;;;;;;5044792;28;20046;-67
2023/06/12 11:45:11;;;;;;;0.03;0.00;;;30.50;82.90;;;;;;5010233;28;20128;-67
2023/06/12 11:47:39;;;;;;;0.00;0.00;;;30.70;81.20;;;;;;5002027;28;20161;-67
2023/06/12 11:50:10;;;;;;;0.45;0.45;;;30.90;79.20;;;;;;5014219;28;20489;-67
2023/06/12 11:52:38;;;;;;;0.20;0.20;;;31.00;78.80;;;;;;5013613;28;20117;-67
2023/06/12 11:55:06;;;;;;;0.30;0.30;;;31.10;81.70;;;;;;5008026;28;20050;-67
2023/06/12 11:57:32;;;;;;;0.63;0.10;;;31.40;81.30;;;;;;5012137;28;20046;-67
2023/06/12 11:59:58;;;;;;;0.90;0.13;;;31.50;78.70;;;;;;5009954;28;20056;-67
2023/06/12 12:02:34;;;;;;;0.00;0.00;;;31.70;80.60;;;;;;5010952;28;20481;-67
2023/06/12 12:05:04;;;;;;;0.35;0.17;;;31.70;80.10;;;;;;5012885;28;20050;-67
2023/06/12 12:07:31;;;;;;;0.20;0.20;;;31.60;77.20;;;;;;5026977;28;20049;-67
2023/06/12 12:10:10;;;;;;;0.00;0.00;;;31.80;79.50;;;;;;5001455;28;20046;-67
2023/06/12 12:12:51;;;;;;;0.20;0.20;;;32.00;77.10;;;;;;5005448;28;20047;-67
2023/06/12 12:15:22;;;;;;;0.03;0.03;;;32.10;79.60;;;;;;5007328;28;20046;-67
2023/06/12 12:17:48;;;;;;;0.40;0.32;;;32.10;76.20;;;;;;5014018;28;20117;-67
2023/06/12 12:20:18;;;;;;;0.30;0.30;;;31.90;74.40;;;;;;5007417;28;20233;-67
2023/06/12 12:22:52;;;;;;;0.00;0.00;;;32.00;83.40;;;;;;5012063;28;20477;-67
2023/06/12 12:25:21;;;;;;;2.42;0.70;;;32.10;84.60;;;;;;5006170;28;20038;-67
2023/06/12 12:27:49;;;;;;;0.55;0.10;;;32.40;79.30;;;;;;5000167;28;20042;-67
2023/06/12 12:30:15;;;;;;;0.00;0.00;;;32.50;79.00;;;;;;5012726;28;20081;-67
2023/06/12 12:32:46;;;;;;;0.10;0.05;;;32.50;79.20;;;;;;5012591;28;20072;-67
2023/06/12 12:35:13;;;;;;;0.22;0.22;;;32.60;81.20;;;;;;5007621;28;20050;-67
2023/06/12 12:37:39;;;;;;;0.15;0.15;;;32.50;78.30;;;;;;5011954;28;20046;-67
2023/06/12 12:40:09;;;;;;;2.85;0.30;;;32.30;87.00;;;;;;5011130;28;20127;-68
2023/06/12 12:42:38;;;;;;;1.52;0.57;;;32.40;87.90;;;;;;5007142;28;20050;-67
2023/06/12 12:45:05;;;;;;;0.13;0.10;;;32.80;90.20;;;;;;5000820;28;20038;-67
2023/06/12 12:47:31;;;;;;;0.30;0.20;;;32.80;90.10;;;;;;5002149;28;20050;-67
2023/06/12 12:49:57;;;;;;;0.00;0.00;;;33.00;90.00;;;;;;5001648;28;20050;-67
2023/06/12 12:52:22;;;;;;;1.85;1.08;;;33.20;87.40;;;;;;5005626;28;20058;-67